createdAt,value
2023-04-16T00:01:11.833Z,4.60
2023-04-16T00:03:40.663Z,4.40
2023-04-16T00:06:09.336Z,4.50
2023-04-16T00:08:37.887Z,4.50
2023-04-16T00:11:07.266Z,4.40
2023-04-16T00:13:35.739Z,4.40
2023-04-16T00:16:06.011Z,4.50
2023-04-16T00:18:34.440Z,4.60
2023-04-16T00:21:03.037Z,4.80
2023-04-16T00:23:31.577Z,4.80
2023-04-16T00:26:00.466Z,4.90
2023-04-16T00:28:28.957Z,5.00
2023-04-16T00:30:57.492Z,5.10
2023-04-16T00:33:27.288Z,5.10
2023-04-16T00:35:55.696Z,5.20
2023-04-16T00:38:24.196Z,5.20
2023-04-16T00:40:52.550Z,5.20
2023-04-16T00:43:23.188Z,5.20
2023-04-16T00:45:51.967Z,5.20
2023-04-16T00:48:20.673Z,5.20
2023-04-16T00:50:50.515Z,5.10
2023-04-16T00:53:18.977Z,5.10
2023-04-16T00:55:47.488Z,5.10
2023-04-16T00:58:16.011Z,5.00
2023-04-16T01:00:44.462Z,4.70
2023-04-16T01:03:13.046Z,4.70
2023-04-16T01:05:41.800Z,4.80
2023-04-16T01:08:18.481Z,4.80
2023-04-16T01:10:46.914Z,5.00
2023-04-16T01:13:15.562Z,5.10
2023-04-16T01:15:44.040Z,5.10
2023-04-16T01:18:16.315Z,5.20
2023-04-16T01:20:46.452Z,5.00
2023-04-16T01:23:14.985Z,4.90
2023-04-16T01:25:43.409Z,5.00
2023-04-16T01:28:11.943Z,5.10
2023-04-16T01:30:40.449Z,5.10
2023-04-16T01:33:09.321Z,5.20
2023-04-16T01:35:38.026Z,5.20
2023-04-16T01:38:08.810Z,5.30
2023-04-16T01:40:38.077Z,5.20
2023-04-16T01:43:06.703Z,5.30
2023-04-16T01:45:36.140Z,5.30
2023-04-16T01:48:05.118Z,5.30
2023-04-16T01:50:33.754Z,5.30
2023-04-16T01:53:05.277Z,5.30
2023-04-16T01:55:35.723Z,5.30
2023-04-16T01:58:04.348Z,5.30
2023-04-16T02:00:32.816Z,5.30
2023-04-16T02:03:01.714Z,5.40
2023-04-16T02:05:30.285Z,5.30
2023-04-16T02:07:58.719Z,5.30
2023-04-16T02:10:27.131Z,5.20
2023-04-16T02:12:57.050Z,5.20
2023-04-16T02:15:25.605Z,5.20
2023-04-16T02:17:56.862Z,5.20
2023-04-16T02:20:25.647Z,5.20
2023-04-16T02:22:54.164Z,5.20
2023-04-16T02:25:23.126Z,5.30
2023-04-16T02:27:51.597Z,5.40
2023-04-16T02:30:21.643Z,5.30
2023-04-16T02:32:50.228Z,5.30
2023-04-16T02:35:18.681Z,5.30
2023-04-16T02:37:47.196Z,5.20
2023-04-16T02:40:16.326Z,5.10
2023-04-16T02:42:44.817Z,5.00
2023-04-16T02:45:13.935Z,5.00
2023-04-16T02:47:43.861Z,5.10
2023-04-16T02:50:12.918Z,5.00
2023-04-16T02:52:41.409Z,5.00
2023-04-16T02:55:11.293Z,5.00
2023-04-16T02:57:39.786Z,5.00
2023-04-16T03:00:10.628Z,5.00
2023-04-16T03:02:39.211Z,5.00
2023-04-16T03:05:10.215Z,4.90
2023-04-16T03:07:40.815Z,4.90
2023-04-16T03:10:10.067Z,4.70
2023-04-16T03:12:39.227Z,4.50
2023-04-16T03:15:08.642Z,4.60
2023-04-16T03:17:37.129Z,4.60
2023-04-16T03:20:06.814Z,4.50
2023-04-16T03:22:36.640Z,4.60
2023-04-16T03:25:05.657Z,4.60
2023-04-16T03:27:34.101Z,4.50
2023-04-16T03:30:03.300Z,4.20
2023-04-16T03:32:31.801Z,4.20
2023-04-16T03:35:00.311Z,4.30
2023-04-16T03:37:28.862Z,4.30
2023-04-16T03:39:58.695Z,4.20
2023-04-16T03:42:27.179Z,4.30
2023-04-16T03:44:55.568Z,4.20
2023-04-16T03:47:24.179Z,4.20
2023-04-16T03:49:52.735Z,4.30
2023-04-16T03:52:21.200Z,4.40
2023-04-16T03:54:49.823Z,4.40
2023-04-16T03:57:19.672Z,4.50
2023-04-16T03:59:48.054Z,4.40
2023-04-16T04:02:16.816Z,4.30
2023-04-16T04:04:45.401Z,4.30
2023-04-16T04:07:13.862Z,4.30
2023-04-16T04:09:42.235Z,4.40
2023-04-16T04:12:11.080Z,4.30
2023-04-16T04:14:40.862Z,4.30
2023-04-16T04:17:10.280Z,4.20
2023-04-16T04:19:42.326Z,4.10
2023-04-16T04:22:15.885Z,4.20
2023-04-16T04:24:44.290Z,4.00
2023-04-16T04:27:12.733Z,3.70
2023-04-16T04:29:42.547Z,3.70
2023-04-16T04:32:11.048Z,3.70
2023-04-16T04:34:39.568Z,3.80
2023-04-16T04:37:07.924Z,3.90
2023-04-16T04:39:36.369Z,3.90
2023-04-16T04:42:04.932Z,4.00
2023-04-16T04:44:33.391Z,4.00
2023-04-16T04:47:03.187Z,4.00
2023-04-16T04:49:31.730Z,4.10
2023-04-16T04:52:01.368Z,4.10
2023-04-16T04:54:29.848Z,4.10
2023-04-16T04:56:58.244Z,4.20
2023-04-16T04:59:26.997Z,4.30
2023-04-16T05:01:55.518Z,4.30
2023-04-16T05:04:25.557Z,4.40
2023-04-16T05:06:53.943Z,4.40
2023-04-16T05:09:22.467Z,4.30
2023-04-16T05:11:51.339Z,4.50
2023-04-16T05:14:19.918Z,4.50
2023-04-16T05:16:48.447Z,4.60
2023-04-16T05:19:17.822Z,4.70
2023-04-16T05:21:47.650Z,4.70
2023-04-16T05:24:16.213Z,4.80
2023-04-16T05:26:44.667Z,4.80
2023-04-16T05:29:13.202Z,4.90
2023-04-16T05:31:41.725Z,4.80
2023-04-16T05:34:10.154Z,4.80
2023-04-16T05:36:38.726Z,4.80
2023-04-16T05:39:08.986Z,4.90
2023-04-16T05:41:38.586Z,5.00
2023-04-16T05:44:07.068Z,5.10
2023-04-16T05:46:35.882Z,5.20
2023-04-16T05:49:04.432Z,5.20
2023-04-16T05:51:33.191Z,5.30
2023-04-16T05:54:01.711Z,5.40
2023-04-16T05:56:31.735Z,5.50
2023-04-16T05:59:00.163Z,5.60
2023-04-16T06:01:28.651Z,5.70
2023-04-16T06:03:57.296Z,5.70
2023-04-16T06:06:27.409Z,5.80
2023-04-16T06:08:55.825Z,5.80
2023-04-16T06:11:24.349Z,6.00
2023-04-16T06:13:54.146Z,6.20
2023-04-16T06:16:22.644Z,6.30
2023-04-16T06:18:53.457Z,6.40
2023-04-16T06:21:21.942Z,6.60
2023-04-16T06:23:50.406Z,6.80
2023-04-16T06:26:18.818Z,7.10
2023-04-16T06:28:47.359Z,7.40
2023-04-16T06:31:17.324Z,7.50
2023-04-16T06:33:45.937Z,7.60
2023-04-16T06:36:14.353Z,7.70
2023-04-16T06:38:42.865Z,8.10
2023-04-16T06:41:11.448Z,8.50
2023-04-16T06:43:39.921Z,8.90
2023-04-16T06:46:08.384Z,9.30
2023-04-16T06:48:38.165Z,9.70
2023-04-16T06:51:06.855Z,10.10
2023-04-16T06:53:37.508Z,10.30
2023-04-16T06:56:06.768Z,10.40
2023-04-16T06:58:35.214Z,10.50
2023-04-16T07:01:06.061Z,10.70
2023-04-16T07:03:37.577Z,10.70
2023-04-16T07:06:06.424Z,10.70
2023-04-16T07:08:34.912Z,10.60
2023-04-16T07:11:06.725Z,10.50
2023-04-16T07:13:35.517Z,10.30
2023-04-16T07:16:04.078Z,10.20
2023-04-16T07:18:34.524Z,10.00
2023-04-16T07:21:08.123Z,9.90
2023-04-16T07:23:37.322Z,9.90
2023-04-16T07:26:05.958Z,9.70
2023-04-16T07:28:34.473Z,9.60
2023-04-16T07:31:02.897Z,9.50
2023-04-16T07:33:31.295Z,9.50
2023-04-16T07:35:59.857Z,9.40
2023-04-16T07:38:30.960Z,9.40
2023-04-16T07:40:59.403Z,9.50
2023-04-16T07:43:27.956Z,9.50
2023-04-16T07:45:56.725Z,9.50
2023-04-16T07:48:25.332Z,9.40
2023-04-16T07:50:54.062Z,9.40
2023-04-16T07:53:22.534Z,9.40
2023-04-16T07:55:52.343Z,9.60
2023-04-16T07:58:20.962Z,9.70
2023-04-16T08:00:50.861Z,9.90
2023-04-16T08:03:19.743Z,9.90
2023-04-16T08:05:48.285Z,10.00
2023-04-16T08:08:16.748Z,10.00
2023-04-16T08:10:45.238Z,10.00
2023-04-16T08:13:15.099Z,10.20
2023-04-16T08:15:43.613Z,10.20
2023-04-16T08:18:15.582Z,10.20
2023-04-16T08:20:44.085Z,10.20
2023-04-16T08:23:12.532Z,10.30
2023-04-16T08:25:40.933Z,10.50
2023-04-16T08:28:09.632Z,10.60
2023-04-16T08:30:39.430Z,10.80
2023-04-16T08:33:07.956Z,10.80
2023-04-16T08:35:36.538Z,10.90
2023-04-16T08:38:07.466Z,10.80
2023-04-16T08:40:40.152Z,10.90
2023-04-16T08:43:12.376Z,10.90
2023-04-16T08:45:43.242Z,11.00
2023-04-16T08:48:12.999Z,11.00
2023-04-16T08:50:42.353Z,11.00
2023-04-16T08:53:12.678Z,11.00
2023-04-16T08:55:42.790Z,11.10
2023-04-16T08:58:15.555Z,11.20
2023-04-16T09:00:46.128Z,11.20
2023-04-16T09:03:14.850Z,11.40
2023-04-16T09:05:44.586Z,11.40
2023-04-16T09:08:14.464Z,11.50
2023-04-16T09:10:43.019Z,11.50
2023-04-16T09:13:13.461Z,11.60
2023-04-16T09:15:42.711Z,11.50
2023-04-16T09:18:13.300Z,11.60
2023-04-16T09:20:41.748Z,11.70
2023-04-16T09:23:11.277Z,11.70
2023-04-16T09:25:40.120Z,11.70
2023-04-16T09:28:08.611Z,11.70
2023-04-16T09:30:37.546Z,11.80
2023-04-16T09:33:22.289Z,11.90
2023-04-16T09:35:52.413Z,12.00
2023-04-16T09:38:21.800Z,11.90
2023-04-16T09:41:07.236Z,11.90
2023-04-16T09:43:35.674Z,11.90
2023-04-16T09:46:08.121Z,11.80
2023-04-16T09:48:38.542Z,11.70
2023-04-16T09:51:08.121Z,11.70
2023-04-16T09:53:36.763Z,11.70
2023-04-16T09:56:08.015Z,11.60
2023-04-16T09:58:38.339Z,11.70
2023-04-16T10:01:09.226Z,11.80
2023-04-16T10:03:40.223Z,11.80
2023-04-16T10:06:10.910Z,11.90
2023-04-16T10:08:39.320Z,12.00
2023-04-16T10:11:07.757Z,12.10
2023-04-16T10:13:36.224Z,12.20
2023-04-16T10:16:04.918Z,12.30
2023-04-16T10:18:33.742Z,12.40
2023-04-16T10:21:04.224Z,12.50
2023-04-16T10:23:33.440Z,12.60
2023-04-16T10:26:02.992Z,12.60
2023-04-16T10:28:31.995Z,12.60
2023-04-16T10:31:01.120Z,12.50
2023-04-16T10:33:30.873Z,12.50
2023-04-16T10:36:11.164Z,12.50
2023-04-16T10:38:41.183Z,12.40
2023-04-16T10:41:10.172Z,12.50
2023-04-16T10:43:43.646Z,12.50
2023-04-16T10:46:22.865Z,12.70
2023-04-16T10:48:53.505Z,12.80
2023-04-16T10:51:28.829Z,12.90
2023-04-16T10:53:58.312Z,13.10
2023-04-16T10:56:30.464Z,13.20
2023-04-16T10:58:58.953Z,13.40
2023-04-16T11:01:34.978Z,13.40
2023-04-16T11:04:35.828Z,13.40
2023-04-16T11:07:15.648Z,13.30
2023-04-16T11:09:47.072Z,13.20
2023-04-16T11:12:18.408Z,13.00
2023-04-16T11:14:50.109Z,12.80
2023-04-16T11:17:19.125Z,12.70
2023-04-16T11:19:47.916Z,12.60
2023-04-16T11:22:18.590Z,12.60
2023-04-16T11:24:47.911Z,12.70
2023-04-16T11:27:16.696Z,12.80
2023-04-16T11:29:47.430Z,12.90
2023-04-16T11:32:22.710Z,13.00
2023-04-16T11:34:51.360Z,13.20
2023-04-16T11:37:23.395Z,13.30
2023-04-16T11:39:53.004Z,13.50
2023-04-16T11:42:23.742Z,13.50
2023-04-16T11:44:55.934Z,13.40
2023-04-16T11:47:25.170Z,13.40
2023-04-16T11:49:53.753Z,13.30
2023-04-16T11:52:31.179Z,13.30
2023-04-16T11:55:00.453Z,13.30
2023-04-16T11:57:29.760Z,13.20
2023-04-16T12:00:01.475Z,13.10
2023-04-16T12:02:39.099Z,13.10
2023-04-16T12:05:09.419Z,13.00
2023-04-16T12:07:48.388Z,12.90
2023-04-16T12:10:16.818Z,12.90
2023-04-16T12:12:45.264Z,12.90
2023-04-16T12:15:13.765Z,13.00
2023-04-16T12:17:42.287Z,13.10
2023-04-16T12:20:12.094Z,13.20
2023-04-16T12:22:41.708Z,13.30
2023-04-16T12:25:13.085Z,13.40
2023-04-16T12:27:53.028Z,13.30
2023-04-16T12:30:23.496Z,13.20
2023-04-16T12:32:53.208Z,13.20
2023-04-16T12:35:32.251Z,13.20
2023-04-16T12:38:01.006Z,13.20
2023-04-16T12:40:31.023Z,13.20
2023-04-16T12:42:59.443Z,13.20
2023-04-16T12:45:27.871Z,13.10
2023-04-16T12:47:57.554Z,13.00
2023-04-16T12:50:26.056Z,13.10
2023-04-16T12:52:54.450Z,13.20
2023-04-16T12:55:22.881Z,13.10
2023-04-16T12:57:53.769Z,13.10
2023-04-16T13:00:23.132Z,13.20
2023-04-16T13:02:51.820Z,13.20
2023-04-16T13:05:20.496Z,13.30
2023-04-16T13:07:48.950Z,13.30
2023-04-16T13:10:17.473Z,13.30
2023-04-16T13:12:46.608Z,13.40
2023-04-16T13:15:16.451Z,13.40
2023-04-16T13:17:44.934Z,13.50
2023-04-16T13:20:14.732Z,13.50
2023-04-16T13:22:43.334Z,13.50
2023-04-16T13:25:11.811Z,13.50
2023-04-16T13:27:40.225Z,13.50
2023-04-16T13:30:09.588Z,13.40
2023-04-16T13:32:40.582Z,13.50
2023-04-16T13:35:11.822Z,13.60
2023-04-16T13:37:40.402Z,13.70
2023-04-16T13:40:10.208Z,13.70
2023-04-16T13:42:38.589Z,13.80
2023-04-16T13:45:09.347Z,13.70
2023-04-16T13:47:39.375Z,13.60
2023-04-16T13:50:08.447Z,13.30
2023-04-16T13:52:36.888Z,13.20
2023-04-16T13:55:05.935Z,13.00
2023-04-16T13:57:34.571Z,12.70
2023-04-16T14:00:04.089Z,12.60
2023-04-16T14:02:32.768Z,12.50
2023-04-16T14:05:02.663Z,12.40
2023-04-16T14:07:32.606Z,12.40
2023-04-16T14:10:01.207Z,12.40
2023-04-16T14:12:29.779Z,12.40
2023-04-16T14:14:58.358Z,12.40
2023-04-16T14:17:26.887Z,12.40
2023-04-16T14:19:55.475Z,12.40
2023-04-16T14:22:25.597Z,12.40
2023-04-16T14:24:54.296Z,12.50
2023-04-16T14:27:22.854Z,12.50
2023-04-16T14:29:52.271Z,12.40
2023-04-16T14:32:21.358Z,12.40
2023-04-16T14:34:50.114Z,12.40
2023-04-16T14:37:19.398Z,12.30
2023-04-16T14:39:49.345Z,12.30
2023-04-16T14:42:17.889Z,12.30
2023-04-16T14:44:46.329Z,12.30
2023-04-16T14:47:15.121Z,12.30
2023-04-16T14:49:43.756Z,12.30
2023-04-16T14:52:12.610Z,12.40
2023-04-16T14:54:41.555Z,12.30
2023-04-16T14:57:13.702Z,12.40
2023-04-16T14:59:42.507Z,12.30
2023-04-16T15:02:11.570Z,12.40
2023-04-16T15:04:40.411Z,12.20
2023-04-16T15:07:09.227Z,12.30
2023-04-16T15:09:37.952Z,12.20
2023-04-16T15:12:06.729Z,12.20
2023-04-16T15:14:36.703Z,12.10
2023-04-16T15:17:05.379Z,12.10
2023-04-16T15:19:34.274Z,12.10
2023-04-16T15:22:02.720Z,12.10
2023-04-16T15:24:31.540Z,12.00
2023-04-16T15:27:02.265Z,12.10
2023-04-16T15:29:31.123Z,12.00
2023-04-16T15:32:01.289Z,12.00
2023-04-16T15:34:30.409Z,12.00
2023-04-16T15:36:58.860Z,12.00
2023-04-16T15:39:27.406Z,12.00
2023-04-16T15:42:00.512Z,12.00
2023-04-16T15:44:31.538Z,12.10
2023-04-16T15:47:01.489Z,12.00
2023-04-16T15:49:30.118Z,11.90
2023-04-16T15:51:58.660Z,11.90
2023-04-16T15:54:27.153Z,11.90
2023-04-16T15:56:55.840Z,11.80
2023-04-16T15:59:24.342Z,11.80
2023-04-16T16:01:52.800Z,11.70
2023-04-16T16:04:23.361Z,11.70
2023-04-16T16:06:52.107Z,11.70
2023-04-16T16:09:25.673Z,11.70
2023-04-16T16:11:54.532Z,11.70
2023-04-16T16:14:23.521Z,11.70
2023-04-16T16:16:51.941Z,11.90
2023-04-16T16:19:20.447Z,12.00
2023-04-16T16:21:50.274Z,12.30
2023-04-16T16:24:19.272Z,12.70
2023-04-16T16:26:47.835Z,12.90
2023-04-16T16:29:16.319Z,13.00
2023-04-16T16:31:44.873Z,13.00
2023-04-16T16:34:20.439Z,13.00
2023-04-16T16:36:51.297Z,12.90
2023-04-16T16:39:24.278Z,12.90
2023-04-16T16:41:53.371Z,12.80
2023-04-16T16:44:22.141Z,12.70
2023-04-16T16:46:51.388Z,12.60
2023-04-16T16:49:20.065Z,12.50
2023-04-16T16:51:49.954Z,12.40
2023-04-16T16:54:18.443Z,12.20
2023-04-16T16:56:47.230Z,12.10
2023-04-16T16:59:15.779Z,12.00
2023-04-16T17:01:44.186Z,11.90
2023-04-16T17:04:12.909Z,11.70
2023-04-16T17:06:41.751Z,11.70
2023-04-16T17:09:11.983Z,11.70
2023-04-16T17:11:40.583Z,11.70
2023-04-16T17:14:09.009Z,11.60
2023-04-16T17:16:37.460Z,11.50
2023-04-16T17:19:06.061Z,11.50
2023-04-16T17:21:34.574Z,11.40
2023-04-16T17:24:03.052Z,11.40
2023-04-16T17:26:32.928Z,11.30
2023-04-16T17:29:01.507Z,11.30
2023-04-16T17:31:30.080Z,11.20
2023-04-16T17:33:59.542Z,11.10
2023-04-16T17:36:28.128Z,11.10
2023-04-16T17:38:56.693Z,11.00
2023-04-16T17:41:25.247Z,11.00
2023-04-16T17:43:55.096Z,11.00
2023-04-16T17:46:23.829Z,10.90
2023-04-16T17:48:52.267Z,10.90
2023-04-16T17:51:20.858Z,10.90
2023-04-16T17:53:49.838Z,10.90
2023-04-16T17:56:18.470Z,10.80
2023-04-16T17:58:46.961Z,10.90
2023-04-16T18:01:16.794Z,10.90
2023-04-16T18:03:45.634Z,10.80
2023-04-16T18:06:14.244Z,10.80
2023-04-16T18:08:42.667Z,10.70
2023-04-16T18:11:11.148Z,10.70
2023-04-16T18:13:39.796Z,10.70
2023-04-16T18:16:10.420Z,10.70
2023-04-16T18:18:40.413Z,10.60
2023-04-16T18:21:08.944Z,10.60
2023-04-16T18:23:37.902Z,10.60
2023-04-16T18:26:08.422Z,10.60
2023-04-16T18:28:37.828Z,10.60
2023-04-16T18:31:07.797Z,10.50
2023-04-16T18:33:54.005Z,10.40
2023-04-16T18:36:27.269Z,10.40
2023-04-16T18:41:28.380Z,10.40
2023-04-16T18:43:56.894Z,10.20
2023-04-16T18:46:26.770Z,10.00
2023-04-16T18:48:55.249Z,9.90
2023-04-16T18:51:23.841Z,9.90
2023-04-16T18:53:53.681Z,9.90
2023-04-16T18:56:22.229Z,9.60
2023-04-16T18:58:50.684Z,9.70
2023-04-16T19:01:19.191Z,9.70
2023-04-16T19:03:47.800Z,9.60
2023-04-16T19:06:16.261Z,9.60
2023-04-16T19:08:44.889Z,9.60
2023-04-16T19:11:14.784Z,9.60
2023-04-16T19:13:43.290Z,9.60
2023-04-16T19:16:12.424Z,9.60
2023-04-16T19:18:41.000Z,9.50
2023-04-16T19:21:10.956Z,9.40
2023-04-16T19:23:39.615Z,9.30
2023-04-16T19:26:08.249Z,9.20
2023-04-16T19:28:39.050Z,9.10
2023-04-16T19:31:07.586Z,9.20
2023-04-16T19:33:36.256Z,9.20
2023-04-16T19:36:04.815Z,9.20
2023-04-16T19:38:33.486Z,9.20
2023-04-16T19:41:02.356Z,9.20
2023-04-16T19:43:31.935Z,8.90
2023-04-16T19:46:01.931Z,8.90
2023-04-16T19:48:31.811Z,8.90
2023-04-16T19:51:03.895Z,8.90
2023-04-16T19:53:32.399Z,8.90
2023-04-16T19:56:01.061Z,9.00
2023-04-16T19:58:29.648Z,9.00
2023-04-16T20:00:58.084Z,9.10
2023-04-16T20:03:27.997Z,9.10
2023-04-16T20:05:56.486Z,9.10
2023-04-16T20:08:24.977Z,9.10
2023-04-16T20:10:54.621Z,9.00
2023-04-16T20:13:23.254Z,9.00
2023-04-16T20:15:53.203Z,9.00
2023-04-16T20:18:22.212Z,9.00
2023-04-16T20:20:52.022Z,9.00
2023-04-16T20:23:20.458Z,9.00
2023-04-16T20:25:49.106Z,8.90
2023-04-16T20:28:21.363Z,8.90
2023-04-16T20:30:51.205Z,8.50
2023-04-16T20:33:19.873Z,8.60
2023-04-16T20:35:50.851Z,8.70
2023-04-16T20:38:23.771Z,8.60
2023-04-16T20:40:58.145Z,8.60
2023-04-16T20:43:29.682Z,8.50
2023-04-16T20:45:58.351Z,8.40
2023-04-16T20:48:26.917Z,8.40
2023-04-16T20:50:59.619Z,8.50
2023-04-16T20:53:29.708Z,8.50
2023-04-16T20:55:58.322Z,8.40
2023-04-16T20:58:27.107Z,8.50
2023-04-16T21:00:56.285Z,8.50
2023-04-16T21:03:25.250Z,8.50
2023-04-16T21:05:55.366Z,8.60
2023-04-16T21:08:24.995Z,8.50
2023-04-16T21:10:54.802Z,8.50
2023-04-16T21:13:23.392Z,8.50
2023-04-16T21:15:51.913Z,8.50
2023-04-16T21:18:20.327Z,8.50
2023-04-16T21:20:48.794Z,8.50
2023-04-16T21:23:17.208Z,8.60
2023-04-16T21:25:45.780Z,8.60
2023-04-16T21:28:15.577Z,8.40
2023-04-16T21:30:44.210Z,8.50
2023-04-16T21:33:13.009Z,8.50
2023-04-16T21:35:41.468Z,8.50
2023-04-16T21:38:09.887Z,8.40
2023-04-16T21:40:38.390Z,8.50
2023-04-16T21:43:06.828Z,8.20
2023-04-16T21:45:36.688Z,8.30
2023-04-16T21:48:05.427Z,8.30
2023-04-16T21:50:33.869Z,8.20
2023-04-16T21:53:06.285Z,8.20
2023-04-16T21:55:35.848Z,8.30
2023-04-16T21:58:04.353Z,8.40
2023-04-16T22:00:33.108Z,8.40
2023-04-16T22:03:04.342Z,8.40
2023-04-16T22:05:33.249Z,8.40
2023-04-16T22:08:10.875Z,8.40
2023-04-16T22:10:49.842Z,8.40
2023-04-16T22:13:18.298Z,8.40
2023-04-16T22:15:47.439Z,8.50
2023-04-16T22:18:17.252Z,8.50
2023-04-16T22:20:47.203Z,8.50
2023-04-16T22:23:15.781Z,8.60
2023-04-16T22:25:44.436Z,8.60
2023-04-16T22:28:13.195Z,8.60
2023-04-16T22:30:41.670Z,8.60
2023-04-16T22:33:10.411Z,8.50
2023-04-16T22:35:40.720Z,8.50
2023-04-16T22:38:10.099Z,8.50
2023-04-16T22:40:38.645Z,8.40
2023-04-16T22:43:07.133Z,8.40
2023-04-16T22:45:35.773Z,8.50
2023-04-16T22:48:04.375Z,8.60
2023-04-16T22:50:32.860Z,8.60
2023-04-16T22:53:02.651Z,8.60
2023-04-16T22:55:31.063Z,8.50
2023-04-16T22:57:59.580Z,8.50
2023-04-16T23:00:28.435Z,8.60
2023-04-16T23:02:56.944Z,8.50
2023-04-16T23:05:25.821Z,8.50
2023-04-16T23:07:54.268Z,8.50
2023-04-16T23:10:24.081Z,8.50
2023-04-16T23:12:52.536Z,8.40
2023-04-16T23:15:20.995Z,8.40
2023-04-16T23:17:49.485Z,8.40
2023-04-16T23:20:18.186Z,8.40
2023-04-16T23:22:47.002Z,8.50
2023-04-16T23:25:15.557Z,8.50
2023-04-16T23:27:45.427Z,8.50
2023-04-16T23:30:14.467Z,8.50
2023-04-16T23:32:43.052Z,8.50
2023-04-16T23:35:11.727Z,8.40
2023-04-16T23:37:40.307Z,8.50
2023-04-16T23:40:09.852Z,8.50
2023-04-16T23:42:38.334Z,8.40
2023-04-16T23:45:09.473Z,8.40
2023-04-16T23:47:38.063Z,8.40
2023-04-16T23:50:07.703Z,8.30
2023-04-16T23:52:36.416Z,8.20
2023-04-16T23:55:05.307Z,8.30
2023-04-16T23:57:33.859Z,8.30
